JODY11 KLRF-KLRF
Flight info
| Callsign | JODY11 |
|---|---|
| Flight time | 0h 9m |
| Altitude | 11000 |
| Route | KCCA |
| Aircraft | C130/M-SDE2E3FGRY/H |
Departure
| Time | 2026-05-03 21:30 |
|---|---|
| Airport | Little Rock Air Force Base (KLRF) |
Arrival
| Time | 2026-05-03 21:39 |
|---|---|
| Airport | Little Rock Air Force Base (KLRF) |
| Time | Latitude | Longitude | Altitude | Speed | Heading |
|---|---|---|---|---|---|
| 2026-05-03 21:08 | 34.91460 | -92.14018 | 319 ft | 0 kts | 251° |
| 2026-05-03 21:24 | 34.91459 | -92.14020 | 319 ft | 2 kts | 251° |
| 2026-05-03 21:24 | 34.91465 | -92.14049 | 319 ft | 6 kts | 309° |
| 2026-05-03 21:25 | 34.91518 | -92.14056 | 318 ft | 10 kts | 33° |
| 2026-05-03 21:25 | 34.91546 | -92.13981 | 318 ft | 8 kts | 70° |
| 2026-05-03 21:25 | 34.91569 | -92.13898 | 318 ft | 12 kts | 70° |
| 2026-05-03 21:25 | 34.91595 | -92.13812 | 319 ft | 10 kts | 70° |
| 2026-05-03 21:26 | 34.91623 | -92.13711 | 319 ft | 15 kts | 70° |
| 2026-05-03 21:26 | 34.91665 | -92.13578 | 319 ft | 18 kts | 66° |
| 2026-05-03 21:26 | 34.91705 | -92.13444 | 319 ft | 15 kts | 71° |
| 2026-05-03 21:26 | 34.91741 | -92.13317 | 319 ft | 21 kts | 71° |
| 2026-05-03 21:27 | 34.91791 | -92.13144 | 319 ft | 19 kts | 70° |
| 2026-05-03 21:27 | 34.91826 | -92.13019 | 319 ft | 13 kts | 71° |
| 2026-05-03 21:27 | 34.91850 | -92.12929 | 320 ft | 9 kts | 71° |
| 2026-05-03 21:27 | 34.91870 | -92.12865 | 320 ft | 7 kts | 70° |
| 2026-05-03 21:28 | 34.91894 | -92.12781 | 320 ft | 13 kts | 70° |
| 2026-05-03 21:28 | 34.91936 | -92.12694 | 319 ft | 11 kts | 37° |
| 2026-05-03 21:28 | 34.92017 | -92.12694 | 320 ft | 15 kts | 341° |
| 2026-05-03 21:28 | 34.92110 | -92.12733 | 320 ft | 13 kts | 340° |
| 2026-05-03 21:29 | 34.92185 | -92.12800 | 319 ft | 14 kts | 294° |
| 2026-05-03 21:29 | 34.92181 | -92.12886 | 320 ft | 8 kts | 251° |
| 2026-05-03 21:29 | 34.92144 | -92.13017 | 319 ft | 59 kts | 251° |
| 2026-05-03 21:29 | 34.91929 | -92.13794 | 448 ft | 129 kts | 251° |
| 2026-05-03 21:30 | 34.91585 | -92.15016 | 645 ft | 176 kts | 251° |
| 2026-05-03 21:30 | 34.91148 | -92.16543 | 1053 ft | 204 kts | 251° |
| 2026-05-03 21:30 | 34.90680 | -92.18193 | 1636 ft | 208 kts | 251° |
| 2026-05-03 21:30 | 34.90203 | -92.19863 | 1952 ft | 208 kts | 250° |
| 2026-05-03 21:31 | 34.89392 | -92.21280 | 2046 ft | 208 kts | 217° |
| 2026-05-03 21:31 | 34.88029 | -92.21746 | 2009 ft | 211 kts | 177° |
| 2026-05-03 21:31 | 34.86616 | -92.21303 | 1996 ft | 208 kts | 163° |
| 2026-05-03 21:31 | 34.85257 | -92.20654 | 1994 ft | 210 kts | 161° |
| 2026-05-03 21:32 | 34.83908 | -92.20005 | 1993 ft | 207 kts | 161° |
| 2026-05-03 21:32 | 34.82653 | -92.19117 | 2015 ft | 217 kts | 136° |
| 2026-05-03 21:32 | 34.82027 | -92.17451 | 1972 ft | 219 kts | 96° |
| 2026-05-03 21:32 | 34.82269 | -92.15624 | 1998 ft | 223 kts | 75° |
| 2026-05-03 21:33 | 34.82764 | -92.13825 | 1994 ft | 224 kts | 72° |
| 2026-05-03 21:33 | 34.83272 | -92.12040 | 2014 ft | 223 kts | 72° |
| 2026-05-03 21:33 | 34.83762 | -92.10250 | 2009 ft | 223 kts | 72° |
| 2026-05-03 21:33 | 34.84253 | -92.08468 | 2003 ft | 222 kts | 72° |
| 2026-05-03 21:34 | 34.84742 | -92.06677 | 2016 ft | 224 kts | 72° |
| 2026-05-03 21:34 | 34.85232 | -92.04888 | 2000 ft | 222 kts | 72° |
| 2026-05-03 21:34 | 34.85717 | -92.03098 | 1998 ft | 222 kts | 72° |
| 2026-05-03 21:34 | 34.86205 | -92.01313 | 2000 ft | 222 kts | 72° |
| 2026-05-03 21:35 | 34.86699 | -91.99509 | 2032 ft | 226 kts | 72° |
| 2026-05-03 21:35 | 34.87280 | -91.97746 | 1966 ft | 223 kts | 55° |
| 2026-05-03 21:35 | 34.88486 | -91.96660 | 1986 ft | 220 kts | 14° |
| 2026-05-03 21:35 | 34.89986 | -91.96661 | 2008 ft | 217 kts | 346° |
| 2026-05-03 21:36 | 34.91441 | -91.97120 | 2049 ft | 212 kts | 342° |
| 2026-05-03 21:36 | 34.92784 | -91.97579 | 1969 ft | 191 kts | 342° |
| 2026-05-03 21:36 | 34.94025 | -91.98084 | 1983 ft | 188 kts | 326° |
| 2026-05-03 21:36 | 34.94834 | -91.99274 | 2016 ft | 184 kts | 291° |
| 2026-05-03 21:37 | 34.95427 | -92.00653 | 1999 ft | 185 kts | 299° |
| 2026-05-03 21:37 | 34.95714 | -92.02130 | 2011 ft | 181 kts | 259° |
| 2026-05-03 21:37 | 34.95054 | -92.03394 | 1872 ft | 182 kts | 218° |
| 2026-05-03 21:37 | 34.94259 | -92.04555 | 1684 ft | 181 kts | 252° |
| 2026-05-03 21:38 | 34.93988 | -92.06059 | 1559 ft | 182 kts | 257° |
| 2026-05-03 21:38 | 34.93656 | -92.07560 | 1378 ft | 181 kts | 253° |
| 2026-05-03 21:38 | 34.93307 | -92.08951 | 1130 ft | 161 kts | 251° |
| 2026-05-03 21:38 | 34.92973 | -92.10170 | 833 ft | 143 kts | 251° |
| 2026-05-03 21:39 | 34.92670 | -92.11276 | 594 ft | 135 kts | 254° |
| 2026-05-03 21:39 | 34.92451 | -92.12363 | 437 ft | 131 kts | 252° |
| 2026-05-03 21:39 | 34.92170 | -92.13401 | 319 ft | 123 kts | 251° |
| 2026-05-03 21:39 | 34.91996 | -92.14016 | 319 ft | 37 kts | 250° |
| 2026-05-03 21:40 | 34.91925 | -92.14270 | 319 ft | 23 kts | 251° |
| 2026-05-03 21:40 | 34.91883 | -92.14420 | 317 ft | 13 kts | 248° |
| 2026-05-03 21:40 | 34.91831 | -92.14460 | 319 ft | 9 kts | 173° |
| 2026-05-03 21:40 | 34.91759 | -92.14432 | 318 ft | 15 kts | 161° |
| 2026-05-03 21:41 | 34.91672 | -92.14395 | 318 ft | 15 kts | 161° |
| 2026-05-03 21:41 | 34.91556 | -92.14347 | 318 ft | 16 kts | 161° |
| 2026-05-03 21:41 | 34.91472 | -92.14295 | 319 ft | 12 kts | 118° |
| 2026-05-03 21:41 | 34.91493 | -92.14169 | 319 ft | 19 kts | 71° |
| 2026-05-03 21:42 | 34.91537 | -92.14015 | 319 ft | 16 kts | 71° |
| 2026-05-03 21:42 | 34.91582 | -92.13859 | 319 ft | 22 kts | 71° |
| 2026-05-03 21:42 | 34.91634 | -92.13678 | 319 ft | 22 kts | 70° |
| 2026-05-03 21:42 | 34.91681 | -92.13526 | 319 ft | 17 kts | 69° |
| 2026-05-03 21:43 | 34.91723 | -92.13380 | 319 ft | 21 kts | 72° |
| 2026-05-03 21:43 | 34.91767 | -92.13227 | 319 ft | 15 kts | 69° |
| 2026-05-03 21:43 | 34.91803 | -92.13104 | 319 ft | 16 kts | 70° |
| 2026-05-03 21:43 | 34.91841 | -92.12971 | 320 ft | 17 kts | 72° |
| 2026-05-03 21:44 | 34.91880 | -92.12829 | 320 ft | 18 kts | 71° |
| 2026-05-03 21:44 | 34.91936 | -92.12696 | 319 ft | 17 kts | 34° |
| 2026-05-03 21:44 | 34.92038 | -92.12703 | 319 ft | 17 kts | 342° |
| 2026-05-03 21:44 | 34.92163 | -92.12766 | 319 ft | 18 kts | 319° |
| 2026-05-03 21:45 | 34.92183 | -92.12879 | 319 ft | 13 kts | 254° |
| 2026-05-03 21:45 | 34.92170 | -92.12927 | 321 ft | 0 kts | 251° |
| 2026-05-03 21:45 | 34.92133 | -92.13057 | 320 ft | 61 kts | 250° |
| 2026-05-03 21:45 | 34.91885 | -92.13931 | 368 ft | 146 kts | 251° |
| 2026-05-03 21:46 | 34.91518 | -92.15244 | 797 ft | 176 kts | 255° |
| 2026-05-03 21:46 | 34.91194 | -92.16790 | 1401 ft | 203 kts | 253° |
| 2026-05-03 21:46 | 34.90768 | -92.18482 | 1876 ft | 208 kts | 257° |
| 2026-05-03 21:46 | 34.90857 | -92.20213 | 2279 ft | 210 kts | 292° |
| 2026-05-03 21:47 | 34.91880 | -92.21478 | 2725 ft | 218 kts | 332° |
| 2026-05-03 21:47 | 34.93374 | -92.21911 | 3219 ft | 224 kts | 350° |
| 2026-05-03 21:47 | 34.94922 | -92.22139 | 3678 ft | 224 kts | 346° |
| 2026-05-03 21:47 | 34.96418 | -92.22675 | 4144 ft | 223 kts | 337° |
| 2026-05-03 21:48 | 34.97880 | -92.23320 | 4631 ft | 226 kts | 337° |
| 2026-05-03 21:48 | 34.99354 | -92.23942 | 5118 ft | 226 kts | 338° |
| 2026-05-03 21:48 | 35.00834 | -92.24527 | 5603 ft | 226 kts | 339° |
| 2026-05-03 21:48 | 35.02331 | -92.25088 | 6038 ft | 227 kts | 340° |
| 2026-05-03 21:49 | 35.03848 | -92.25642 | 6510 ft | 228 kts | 340° |
| 2026-05-03 21:49 | 35.05376 | -92.26190 | 6971 ft | 229 kts | 340° |
| 2026-05-03 21:49 | 35.06913 | -92.26734 | 7443 ft | 230 kts | 340° |
| 2026-05-03 21:49 | 35.08460 | -92.27275 | 7927 ft | 232 kts | 340° |
| 2026-05-03 21:50 | 35.10015 | -92.27818 | 8405 ft | 233 kts | 340° |
| 2026-05-03 21:50 | 35.11535 | -92.28346 | 8880 ft | 234 kts | 341° |
| 2026-05-03 21:50 | 35.13107 | -92.28892 | 9386 ft | 235 kts | 341° |
| 2026-05-03 21:50 | 35.14682 | -92.29439 | 9863 ft | 239 kts | 341° |
| 2026-05-03 21:51 | 35.16318 | -92.30008 | 10410 ft | 249 kts | 341° |
| 2026-05-03 21:51 | 35.17988 | -92.30588 | 10885 ft | 260 kts | 342° |
| 2026-05-03 21:51 | 35.19795 | -92.31217 | 11000 ft | 279 kts | 342° |
| 2026-05-03 21:51 | 35.21713 | -92.31882 | 11026 ft | 291 kts | 342° |
| 2026-05-03 21:52 | 35.23654 | -92.32554 | 11005 ft | 289 kts | 342° |
| 2026-05-03 21:52 | 35.25566 | -92.33217 | 11001 ft | 289 kts | 342° |
| 2026-05-03 21:52 | 35.27498 | -92.33887 | 10999 ft | 289 kts | 342° |
| 2026-05-03 21:52 | 35.29456 | -92.34569 | 11010 ft | 299 kts | 342° |
| 2026-05-03 21:53 | 35.31494 | -92.35279 | 11010 ft | 310 kts | 342° |
| 2026-05-03 21:53 | 35.33589 | -92.36008 | 11005 ft | 314 kts | 342° |
| 2026-05-03 21:53 | 35.35690 | -92.36738 | 10990 ft | 313 kts | 342° |
| 2026-05-03 21:53 | 35.37787 | -92.37470 | 11000 ft | 314 kts | 342° |
| 2026-05-03 21:54 | 35.39885 | -92.38202 | 11001 ft | 313 kts | 342° |
| 2026-05-03 21:54 | 35.41982 | -92.38935 | 10990 ft | 313 kts | 342° |
| 2026-05-03 21:54 | 35.44075 | -92.39665 | 11000 ft | 313 kts | 342° |
| 2026-05-03 21:54 | 35.46170 | -92.40397 | 11001 ft | 313 kts | 342° |
| 2026-05-03 21:55 | 35.48142 | -92.41084 | 10985 ft | 275 kts | 342° |
| 2026-05-03 21:55 | 35.49845 | -92.41676 | 10985 ft | 242 kts | 342° |
| 2026-05-03 21:55 | 35.51386 | -92.42210 | 11005 ft | 212 kts | 342° |
| 2026-05-03 21:55 | 35.52717 | -92.42675 | 10989 ft | 188 kts | 341° |
| 2026-05-03 21:56 | 35.53880 | -92.43077 | 10992 ft | 161 kts | 341° |
| 2026-05-03 21:56 | 35.54931 | -92.43427 | 10947 ft | 146 kts | 342° |
| 2026-05-03 21:56 | 35.55822 | -92.43687 | 10915 ft | 119 kts | 341° |
| 2026-05-03 21:56 | 35.56563 | -92.43893 | 10822 ft | 101 kts | 343° |
| 2026-05-03 21:57 | 35.57231 | -92.44065 | 10645 ft | 106 kts | 342° |
| 2026-05-03 21:57 | 35.58050 | -92.44300 | 10681 ft | 124 kts | 342° |
| 2026-05-03 21:57 | 35.58859 | -92.44489 | 10663 ft | 117 kts | 345° |
| 2026-05-03 21:57 | 35.59654 | -92.44640 | 10691 ft | 115 kts | 346° |
| 2026-05-03 21:58 | 35.60451 | -92.44776 | 10714 ft | 116 kts | 347° |
| 2026-05-03 21:58 | 35.61255 | -92.44902 | 10736 ft | 117 kts | 348° |
| 2026-05-03 21:58 | 35.62051 | -92.45008 | 10712 ft | 113 kts | 348° |
| 2026-05-03 21:58 | 35.62829 | -92.45113 | 10731 ft | 112 kts | 348° |
| 2026-05-03 21:59 | 35.63601 | -92.45212 | 10763 ft | 111 kts | 348° |
| 2026-05-03 21:59 | 35.64376 | -92.45308 | 10797 ft | 113 kts | 349° |
| 2026-05-03 21:59 | 35.65162 | -92.45364 | 10798 ft | 113 kts | 352° |
| 2026-05-03 21:59 | 35.66002 | -92.45413 | 10881 ft | 134 kts | 352° |
| 2026-05-03 22:00 | 35.67076 | -92.45485 | 10880 ft | 169 kts | 354° |
| 2026-05-03 22:00 | 35.68302 | -92.45592 | 10992 ft | 190 kts | 349° |
| 2026-05-03 22:00 | 35.69711 | -92.45876 | 11008 ft | 218 kts | 347° |
| 2026-05-03 22:00 | 35.71310 | -92.46061 | 11001 ft | 254 kts | 5° |
| 2026-05-03 22:01 | 35.73012 | -92.45148 | 11003 ft | 287 kts | 37° |
| 2026-05-03 22:01 | 35.74217 | -92.43087 | 10996 ft | 312 kts | 67° |
| 2026-05-03 22:01 | 35.74494 | -92.40393 | 11000 ft | 328 kts | 96° |
| 2026-05-03 22:01 | 35.73715 | -92.37730 | 10991 ft | 336 kts | 123° |
| 2026-05-03 22:02 | 35.72047 | -92.35760 | 10992 ft | 333 kts | 151° |
| 2026-05-03 22:02 | 35.69865 | -92.34928 | 10995 ft | 330 kts | 178° |
| 2026-05-03 22:02 | 35.67584 | -92.35120 | 10991 ft | 328 kts | 187° |
| 2026-05-03 22:02 | 35.65299 | -92.35121 | 11000 ft | 330 kts | 178° |
| 2026-05-03 22:03 | 35.63018 | -92.34787 | 11003 ft | 331 kts | 173° |
| 2026-05-03 22:03 | 35.60753 | -92.34292 | 10995 ft | 331 kts | 171° |
| 2026-05-03 22:03 | 35.58498 | -92.33718 | 10987 ft | 331 kts | 169° |
| 2026-05-03 22:03 | 35.56328 | -92.33126 | 10984 ft | 307 kts | 169° |
| 2026-05-03 22:04 | 35.54245 | -92.32541 | 10991 ft | 307 kts | 169° |
| 2026-05-03 22:04 | 35.52170 | -92.31953 | 10993 ft | 307 kts | 169° |
| 2026-05-03 22:04 | 35.50088 | -92.31356 | 10990 ft | 308 kts | 169° |
| 2026-05-03 22:04 | 35.47996 | -92.30757 | 10990 ft | 308 kts | 169° |
| 2026-05-03 22:05 | 35.45908 | -92.30157 | 10570 ft | 306 kts | 169° |
| 2026-05-03 22:05 | 35.43851 | -92.29565 | 10098 ft | 302 kts | 169° |
| 2026-05-03 22:05 | 35.41816 | -92.28981 | 9618 ft | 299 kts | 169° |
| 2026-05-03 22:05 | 35.39826 | -92.28409 | 9172 ft | 296 kts | 170° |
| 2026-05-03 22:06 | 35.37828 | -92.27836 | 8703 ft | 292 kts | 170° |
| 2026-05-03 22:06 | 35.35853 | -92.27270 | 8279 ft | 290 kts | 170° |
| 2026-05-03 22:06 | 35.33902 | -92.26710 | 7824 ft | 286 kts | 170° |
| 2026-05-03 22:06 | 35.31975 | -92.26156 | 7384 ft | 283 kts | 170° |
| 2026-05-03 22:07 | 35.30070 | -92.25612 | 6934 ft | 280 kts | 170° |
| 2026-05-03 22:07 | 35.28179 | -92.25069 | 6484 ft | 277 kts | 170° |
| 2026-05-03 22:07 | 35.26312 | -92.24533 | 6053 ft | 274 kts | 170° |
| 2026-05-03 22:07 | 35.24465 | -92.24004 | 5631 ft | 271 kts | 170° |
| 2026-05-03 22:08 | 35.22630 | -92.23476 | 5207 ft | 270 kts | 170° |
| 2026-05-03 22:08 | 35.20833 | -92.22965 | 4779 ft | 269 kts | 169° |
| 2026-05-03 22:08 | 35.19028 | -92.22450 | 4356 ft | 265 kts | 170° |
| 2026-05-03 22:08 | 35.17271 | -92.21948 | 3956 ft | 263 kts | 169° |
| 2026-05-03 22:09 | 35.15470 | -92.21434 | 3555 ft | 262 kts | 169° |
| 2026-05-03 22:09 | 35.13729 | -92.20940 | 3168 ft | 260 kts | 169° |
| 2026-05-03 22:09 | 35.11972 | -92.20439 | 2736 ft | 258 kts | 169° |
| 2026-05-03 22:10 | 35.08473 | -92.19442 | 2069 ft | 257 kts | 169° |
| 2026-05-03 22:10 | 35.06745 | -92.18949 | 1985 ft | 246 kts | 169° |
| 2026-05-03 22:10 | 35.05186 | -92.18501 | 1984 ft | 218 kts | 169° |
| 2026-05-03 22:10 | 35.03739 | -92.18091 | 1979 ft | 214 kts | 170° |
| 2026-05-03 22:11 | 35.02285 | -92.17681 | 1998 ft | 217 kts | 170° |
| 2026-05-03 22:11 | 35.00874 | -92.17050 | 1984 ft | 218 kts | 146° |
| 2026-05-03 22:11 | 35.00015 | -92.15520 | 1984 ft | 226 kts | 107° |
| 2026-05-03 22:11 | 34.99984 | -92.13589 | 1998 ft | 230 kts | 85° |
| 2026-05-03 22:12 | 35.00220 | -92.11658 | 1994 ft | 230 kts | 82° |
| 2026-05-03 22:12 | 35.00560 | -92.09752 | 1991 ft | 231 kts | 74° |
| 2026-05-03 22:12 | 35.01096 | -92.07907 | 1992 ft | 231 kts | 70° |
| 2026-05-03 22:12 | 35.01665 | -92.06069 | 1996 ft | 231 kts | 70° |
| 2026-05-03 22:13 | 35.02190 | -92.04216 | 1987 ft | 231 kts | 81° |
| 2026-05-03 22:13 | 35.02163 | -92.02935 | 2036 ft | 228 kts | 105° |
| 2026-05-03 22:13 | 35.01388 | -92.01445 | 1973 ft | 193 kts | 146° |
| 2026-05-03 22:13 | 35.00251 | -92.00662 | 1987 ft | 186 kts | 159° |
| 2026-05-03 22:14 | 34.99032 | -92.00296 | 1989 ft | 179 kts | 187° |
| 2026-05-03 22:14 | 34.97829 | -92.00686 | 2008 ft | 179 kts | 203° |
| 2026-05-03 22:14 | 34.96688 | -92.01281 | 1981 ft | 176 kts | 206° |
| 2026-05-03 22:14 | 34.95563 | -92.01908 | 1987 ft | 178 kts | 206° |
| 2026-05-03 22:15 | 34.94652 | -92.02867 | 1897 ft | 176 kts | 243° |
| 2026-05-03 22:15 | 34.94399 | -92.04329 | 1721 ft | 174 kts | 258° |
| 2026-05-03 22:15 | 34.94151 | -92.05734 | 1575 ft | 168 kts | 253° |
| 2026-05-03 22:15 | 34.93829 | -92.07037 | 1356 ft | 154 kts | 250° |
| 2026-05-03 22:16 | 34.93515 | -92.08227 | 1103 ft | 140 kts | 251° |
| 2026-05-03 22:16 | 34.93224 | -92.09301 | 883 ft | 130 kts | 250° |
| 2026-05-03 22:16 | 34.92930 | -92.10325 | 730 ft | 123 kts | 249° |
| 2026-05-03 22:16 | 34.92646 | -92.11310 | 577 ft | 127 kts | 249° |
| 2026-05-03 22:17 | 34.92345 | -92.12321 | 400 ft | 125 kts | 250° |
| 2026-05-03 22:17 | 34.92071 | -92.13280 | 322 ft | 111 kts | 250° |
| 2026-05-03 22:17 | 34.91861 | -92.14005 | 321 ft | 60 kts | 251° |
| 2026-05-03 22:17 | 34.91781 | -92.14293 | 318 ft | 25 kts | 251° |
| 2026-05-03 22:18 | 34.91718 | -92.14404 | 318 ft | 14 kts | 191° |
| 2026-05-03 22:18 | 34.91621 | -92.14373 | 319 ft | 15 kts | 160° |
| 2026-05-03 22:18 | 34.91525 | -92.14333 | 319 ft | 12 kts | 161° |
| 2026-05-03 22:18 | 34.91467 | -92.14274 | 317 ft | 14 kts | 93° |
| 2026-05-03 22:19 | 34.91498 | -92.14152 | 317 ft | 17 kts | 70° |
| 2026-05-03 22:19 | 34.91489 | -92.14086 | 319 ft | 9 kts | 139° |
| 2026-05-03 22:19 | 34.91449 | -92.14079 | 319 ft | 4 kts | 211° |
| 2026-05-03 22:19 | 34.91438 | -92.14104 | 318 ft | 0 kts | 246° |